Time;durP1;ratioP1;P1;durP2;ratioP2;P2;SDS_P1;SDS_P2;PMS_P1;PMS_P2;Temp;Humidity;BMP_temperature;BMP_pressure;BME280_temperature;BME280_humidity;BME280_pressure;Samples;Min_cycle;Max_cycle;Signal;HPM_P1;HPM_P2
2022/07/27 00:00:59;;;;;;;1.98;1.40;;;19.70;99.90;;;;;;5033061;28;20666;-59
2022/07/27 00:03:26;;;;;;;3.38;1.70;;;19.70;99.90;;;;;;5033409;28;20210;-58
2022/07/27 00:05:53;;;;;;;3.88;1.60;;;19.70;99.90;;;;;;5033149;28;20234;-58
2022/07/27 00:08:21;;;;;;;3.13;1.40;;;19.80;99.90;;;;;;5033112;28;20214;-58
2022/07/27 00:10:47;;;;;;;4.15;1.45;;;19.90;99.90;;;;;;5032841;28;20241;-58
2022/07/27 00:13:15;;;;;;;1.73;1.23;;;20.00;99.90;;;;;;5033297;28;20257;-59
2022/07/27 00:15:43;;;;;;;2.25;1.40;;;20.00;99.90;;;;;;5033186;28;20616;-58
2022/07/27 00:18:10;;;;;;;3.35;1.42;;;20.00;99.90;;;;;;5033105;28;20208;-58
2022/07/27 00:20:38;;;;;;;4.13;1.48;;;19.90;99.90;;;;;;5032637;28;20582;-58
2022/07/27 00:23:05;;;;;;;2.08;1.40;;;19.80;99.90;;;;;;5032876;28;20210;-60
2022/07/27 00:25:32;;;;;;;1.88;1.40;;;19.80;99.90;;;;;;5032871;28;20291;-58
2022/07/27 00:27:58;;;;;;;3.85;1.15;;;19.80;99.90;;;;;;5032938;28;20590;-58
2022/07/27 00:30:27;;;;;;;3.03;1.48;;;19.80;99.90;;;;;;5032627;28;20210;-58
2022/07/27 00:32:55;;;;;;;2.00;1.40;;;19.80;99.90;;;;;;5032777;28;20564;-58
2022/07/27 00:35:22;;;;;;;1.73;1.45;;;19.70;99.90;;;;;;5032574;28;20325;-58
2022/07/27 00:37:49;;;;;;;1.98;1.13;;;19.70;99.90;;;;;;5032537;28;20210;-58
2022/07/27 00:40:15;;;;;;;2.03;1.20;;;19.70;99.90;;;;;;5032342;28;20724;-58
2022/07/27 00:42:42;;;;;;;5.47;1.35;;;19.70;99.90;;;;;;5032582;28;20673;-59
2022/07/27 00:45:10;;;;;;;1.75;1.38;;;19.70;99.90;;;;;;5032646;28;20249;-58
2022/07/27 00:47:38;;;;;;;2.55;1.55;;;19.70;99.90;;;;;;5032298;28;20226;-58
2022/07/27 00:50:06;;;;;;;2.38;1.27;;;19.70;99.90;;;;;;5032339;28;20210;-58
2022/07/27 00:52:33;;;;;;;2.53;1.35;;;19.80;99.90;;;;;;5031870;28;20740;-59
2022/07/27 00:55:00;;;;;;;1.52;1.38;;;19.80;99.90;;;;;;5032261;28;20641;-58
2022/07/27 00:57:27;;;;;;;2.85;1.58;;;19.90;99.90;;;;;;5032764;28;20206;-59
2022/07/27 00:59:54;;;;;;;2.03;1.30;;;19.90;99.90;;;;;;5032743;28;20267;-58
2022/07/27 01:02:21;;;;;;;2.05;1.35;;;19.90;99.90;;;;;;5032510;28;20632;-59
2022/07/27 01:04:50;;;;;;;2.45;1.45;;;20.00;99.90;;;;;;5032758;28;20234;-59
2022/07/27 01:07:17;;;;;;;3.30;1.45;;;20.00;99.90;;;;;;5032328;28;20396;-59
2022/07/27 01:09:58;;;;;;;2.42;1.60;;;20.00;99.90;;;;;;5032529;28;20214;-59
2022/07/27 01:12:25;;;;;;;2.58;1.60;;;20.10;99.90;;;;;;5032375;28;20697;-58
2022/07/27 01:14:53;;;;;;;2.42;1.30;;;20.10;99.90;;;;;;5032357;28;20222;-59
2022/07/27 01:17:19;;;;;;;2.35;1.40;;;20.10;99.90;;;;;;5032513;28;20203;-59
2022/07/27 01:19:47;;;;;;;3.72;1.40;;;20.10;99.90;;;;;;5032381;28;20686;-62
2022/07/27 01:22:15;;;;;;;2.97;1.50;;;20.00;99.90;;;;;;5032670;28;20277;-59
2022/07/27 01:24:41;;;;;;;2.15;1.50;;;20.00;99.90;;;;;;5032409;28;20673;-59
2022/07/27 01:27:08;;;;;;;2.17;1.45;;;20.00;99.90;;;;;;5032184;28;20234;-59
2022/07/27 01:29:36;;;;;;;3.00;1.40;;;19.90;99.90;;;;;;5031883;28;20628;-59
2022/07/27 01:32:03;;;;;;;5.65;1.88;;;19.90;99.90;;;;;;5031675;28;20630;-58
2022/07/27 01:34:32;;;;;;;3.53;1.77;;;19.80;99.90;;;;;;5032133;28;20206;-59
2022/07/27 01:36:59;;;;;;;2.33;1.60;;;19.80;99.90;;;;;;5032921;28;20245;-59
2022/07/27 01:39:27;;;;;;;2.67;1.75;;;19.80;99.90;;;;;;5032057;28;20209;-59
2022/07/27 01:41:54;;;;;;;2.25;1.55;;;19.80;99.90;;;;;;5031643;28;20693;-59
2022/07/27 01:44:20;;;;;;;3.50;1.50;;;19.70;99.90;;;;;;5031876;28;20214;-59
2022/07/27 01:46:47;;;;;;;3.88;1.52;;;19.60;99.90;;;;;;5031479;28;20233;-59
2022/07/27 01:49:14;;;;;;;1.83;1.40;;;19.50;99.90;;;;;;5031882;28;20272;-59
2022/07/27 01:51:41;;;;;;;3.95;1.60;;;19.40;99.90;;;;;;5031622;28;20202;-58
2022/07/27 01:54:07;;;;;;;2.58;1.60;;;19.30;99.90;;;;;;5031792;28;20214;-59
2022/07/27 01:56:35;;;;;;;2.40;1.50;;;19.20;99.90;;;;;;5031659;28;20230;-58
2022/07/27 01:59:02;;;;;;;2.50;1.35;;;19.00;99.90;;;;;;5031663;28;20210;-59
2022/07/27 02:01:29;;;;;;;2.88;1.90;;;18.90;99.90;;;;;;5031631;28;20210;-58
2022/07/27 02:03:55;;;;;;;4.13;1.60;;;18.80;99.90;;;;;;5032701;28;20647;-58
2022/07/27 02:06:22;;;;;;;1.77;1.50;;;18.80;99.90;;;;;;5035575;28;20238;-58
2022/07/27 02:08:49;;;;;;;2.03;1.30;;;18.80;99.90;;;;;;5035461;28;20368;-58
2022/07/27 02:14:01;;;;;;;4.28;2.00;;;18.80;99.90;;;;;;5035298;28;20319;-58
2022/07/27 02:16:27;;;;;;;2.33;1.60;;;18.70;99.90;;;;;;5035337;28;20222;-58
2022/07/27 02:18:54;;;;;;;4.57;2.13;;;18.80;99.90;;;;;;5035321;28;20264;-58
2022/07/27 02:21:21;;;;;;;2.97;1.88;;;18.80;99.90;;;;;;5034958;28;20237;-58
2022/07/27 02:23:47;;;;;;;2.70;1.73;;;18.80;99.90;;;;;;5035158;28;20628;-58
2022/07/27 02:26:14;;;;;;;3.55;2.00;;;18.90;99.90;;;;;;5034818;28;20765;-58
2022/07/27 02:28:41;;;;;;;2.28;1.98;;;18.90;99.90;;;;;;5035430;28;20249;-60
2022/07/27 02:31:09;;;;;;;2.75;1.92;;;18.90;99.90;;;;;;5034845;28;20733;-58
2022/07/27 02:33:36;;;;;;;3.85;1.85;;;18.80;99.90;;;;;;5034976;28;20256;-60
2022/07/27 02:36:03;;;;;;;2.67;2.10;;;18.80;99.90;;;;;;5034721;28;20245;-60
2022/07/27 02:38:30;;;;;;;1.85;1.73;;;18.60;99.90;;;;;;5035021;28;20210;-60
2022/07/27 02:40:57;;;;;;;5.00;1.92;;;18.40;99.90;;;;;;5034959;28;20236;-59
2022/07/27 02:43:23;;;;;;;2.53;1.83;;;18.30;99.90;;;;;;5034966;28;20264;-59
2022/07/27 02:45:50;;;;;;;2.40;1.98;;;18.20;99.90;;;;;;5034995;28;20234;-59
2022/07/27 02:48:18;;;;;;;3.38;2.08;;;18.10;99.90;;;;;;5034756;28;20579;-59
2022/07/27 02:50:45;;;;;;;4.80;2.15;;;18.10;99.90;;;;;;5034495;28;20209;-59
2022/07/27 02:53:12;;;;;;;3.40;2.08;;;18.10;99.90;;;;;;5034421;28;20233;-59
2022/07/27 02:55:38;;;;;;;3.45;1.73;;;18.10;99.90;;;;;;5034335;28;20717;-59
2022/07/27 02:58:05;;;;;;;2.17;1.60;;;18.10;99.90;;;;;;5034405;28;20773;-59
2022/07/27 03:00:32;;;;;;;3.60;2.03;;;18.00;99.90;;;;;;5034086;28;20209;-59
2022/07/27 03:02:59;;;;;;;3.97;2.00;;;18.00;99.90;;;;;;5035073;28;20210;-59
2022/07/27 03:05:27;;;;;;;4.90;1.98;;;17.90;99.90;;;;;;5034353;28;20230;-59
2022/07/27 03:07:54;;;;;;;3.00;1.63;;;17.70;99.90;;;;;;5034183;28;20229;-61
2022/07/27 03:10:21;;;;;;;3.92;1.95;;;17.60;99.90;;;;;;5034410;28;20217;-58
2022/07/27 03:12:47;;;;;;;3.47;1.85;;;17.60;99.90;;;;;;5034066;28;20202;-59
2022/07/27 03:15:14;;;;;;;2.13;1.70;;;17.50;99.90;;;;;;5033773;28;20250;-59
2022/07/27 03:17:41;;;;;;;2.33;1.52;;;17.50;99.90;;;;;;5033871;28;20550;-59
2022/07/27 03:20:09;;;;;;;2.53;1.67;;;17.50;99.90;;;;;;5034033;28;20206;-59
2022/07/27 03:22:37;;;;;;;4.30;2.10;;;17.60;99.90;;;;;;5033904;28;20221;-59
2022/07/27 03:25:05;;;;;;;3.25;2.30;;;17.60;99.90;;;;;;5034534;28;20338;-59
2022/07/27 03:27:32;;;;;;;4.88;2.28;;;17.50;99.90;;;;;;5034151;28;20222;-59
2022/07/27 03:29:59;;;;;;;2.20;1.90;;;17.50;99.90;;;;;;5033977;28;20202;-59
2022/07/27 03:32:25;;;;;;;4.38;2.20;;;17.50;99.90;;;;;;5033496;28;20207;-59
2022/07/27 03:34:52;;;;;;;3.10;2.00;;;17.50;99.90;;;;;;5057805;23;20241;-58
2022/07/27 03:37:19;;;;;;;2.97;2.00;;;17.50;99.90;;;;;;5025553;28;20697;-56
2022/07/27 03:39:47;;;;;;;4.60;2.27;;;17.50;99.90;;;;;;5035122;28;20237;-56
2022/07/27 03:42:14;;;;;;;6.20;2.28;;;17.50;99.90;;;;;;5034436;28;20210;-57
2022/07/27 03:44:41;;;;;;;4.32;2.95;;;17.70;99.90;;;;;;5035017;28;20210;-56
2022/07/27 03:47:07;;;;;;;2.65;2.45;;;17.80;99.90;;;;;;5035466;28;20234;-57
2022/07/27 03:49:34;;;;;;;4.40;2.35;;;17.80;99.90;;;;;;5035768;28;20256;-57
2022/07/27 03:52:01;;;;;;;2.72;1.88;;;18.00;99.90;;;;;;5035648;28;20217;-57
2022/07/27 03:54:28;;;;;;;3.72;2.33;;;18.10;99.90;;;;;;5035442;28;20214;-56
2022/07/27 03:56:56;;;;;;;5.70;2.60;;;18.20;99.90;;;;;;5034361;28;20710;-57
2022/07/27 03:59:23;;;;;;;3.95;2.40;;;18.30;99.90;;;;;;5034330;28;20238;-56
2022/07/27 04:01:49;;;;;;;5.53;2.47;;;18.30;99.90;;;;;;5034130;28;20661;-56
2022/07/27 04:04:16;;;;;;;3.97;2.10;;;18.30;99.90;;;;;;5033991;28;20562;-58
2022/07/27 04:06:43;;;;;;;3.08;2.20;;;18.40;99.90;;;;;;5033731;28;20709;-57
2022/07/27 04:09:09;;;;;;;2.63;2.10;;;18.40;99.90;;;;;;5034363;28;20206;-56
2022/07/27 04:11:36;;;;;;;3.33;2.15;;;18.50;99.90;;;;;;5033798;28;20249;-59
2022/07/27 04:14:04;;;;;;;4.55;2.47;;;18.60;99.90;;;;;;5034179;28;20202;-57
2022/07/27 04:16:31;;;;;;;4.32;2.22;;;18.60;99.90;;;;;;5034003;28;20454;-58
2022/07/27 04:18:58;;;;;;;2.45;2.05;;;18.50;99.90;;;;;;5033896;28;20249;-57
2022/07/27 04:21:24;;;;;;;3.78;2.08;;;18.50;99.90;;;;;;5034011;28;20739;-57
2022/07/27 04:23:51;;;;;;;4.88;3.17;;;18.30;99.90;;;;;;5033179;28;20304;-57
2022/07/27 04:26:18;;;;;;;3.70;2.83;;;18.30;99.90;;;;;;5032298;28;20230;-56
2022/07/27 04:28:45;;;;;;;2.78;1.83;;;18.40;99.90;;;;;;5032804;28;20657;-58
2022/07/27 04:31:13;;;;;;;4.32;2.17;;;18.40;99.90;;;;;;5032420;28;20217;-57
2022/07/27 04:33:39;;;;;;;4.40;2.10;;;18.40;99.90;;;;;;5032779;28;20689;-57
2022/07/27 04:36:08;;;;;;;3.92;2.53;;;18.40;99.90;;;;;;5032778;28;20245;-57
2022/07/27 04:38:35;;;;;;;3.75;2.30;;;18.50;99.90;;;;;;5033063;28;20280;-58
2022/07/27 04:41:02;;;;;;;2.97;2.38;;;18.60;99.90;;;;;;5032778;28;20213;-57
2022/07/27 04:43:28;;;;;;;2.78;2.22;;;18.70;99.90;;;;;;5032642;28;20616;-56
2022/07/27 04:45:55;;;;;;;6.78;2.60;;;18.80;99.90;;;;;;5032408;28;20229;-58
2022/07/27 04:48:23;;;;;;;3.30;2.47;;;18.80;99.90;;;;;;5032751;28;20230;-57
2022/07/27 04:50:50;;;;;;;3.40;2.17;;;18.90;99.90;;;;;;5032678;28;20229;-57
2022/07/27 04:53:17;;;;;;;4.97;2.30;;;19.00;99.90;;;;;;5032783;28;20214;-56
2022/07/27 04:55:45;;;;;;;4.45;2.08;;;19.10;99.90;;;;;;5033033;28;20283;-57
2022/07/27 04:58:13;;;;;;;2.47;2.28;;;19.20;99.90;;;;;;5032464;28;20213;-57
2022/07/27 05:00:40;;;;;;;2.58;2.03;;;19.20;99.90;;;;;;5032811;28;20223;-57
2022/07/27 05:03:08;;;;;;;2.88;2.30;;;19.30;99.90;;;;;;5032887;28;20631;-57
2022/07/27 05:05:36;;;;;;;3.42;2.40;;;19.30;99.90;;;;;;5032977;28;20271;-57
2022/07/27 05:08:03;;;;;;;2.65;2.17;;;19.40;99.90;;;;;;5032638;28;20229;-57
2022/07/27 05:10:30;;;;;;;4.93;2.40;;;19.30;99.90;;;;;;5032832;28;20210;-57
2022/07/27 05:12:56;;;;;;;3.28;2.30;;;19.40;99.90;;;;;;5032508;28;20233;-57
2022/07/27 05:15:23;;;;;;;6.00;2.65;;;19.50;99.90;;;;;;5032557;28;20233;-57
2022/07/27 05:17:51;;;;;;;4.47;2.75;;;19.60;99.90;;;;;;5032406;28;20202;-57
2022/07/27 05:20:18;;;;;;;5.88;2.85;;;19.80;99.90;;;;;;5032535;28;20202;-57
2022/07/27 05:22:46;;;;;;;5.85;2.63;;;19.80;99.90;;;;;;5032670;28;20571;-57
2022/07/27 05:25:12;;;;;;;4.07;2.65;;;19.80;99.90;;;;;;5032066;28;20230;-57
2022/07/27 05:27:39;;;;;;;4.72;2.58;;;19.90;99.90;;;;;;5032507;28;20226;-56
2022/07/27 05:30:08;;;;;;;3.60;2.33;;;20.00;99.90;;;;;;5032300;28;20670;-58
2022/07/27 05:32:34;;;;;;;6.35;3.00;;;20.10;99.90;;;;;;5032467;28;20214;-57
2022/07/27 05:35:01;;;;;;;3.60;2.17;;;20.20;99.90;;;;;;5032955;28;20260;-60
2022/07/27 05:37:29;;;;;;;2.85;2.50;;;20.40;99.90;;;;;;5030480;28;20198;-57
2022/07/27 05:39:57;;;;;;;7.95;3.13;;;20.40;99.90;;;;;;5015212;28;20215;-57
2022/07/27 05:42:24;;;;;;;5.68;2.50;;;20.50;99.90;;;;;;5029877;28;20209;-57
2022/07/27 05:44:53;;;;;;;5.10;2.65;;;20.50;99.90;;;;;;5035575;28;20217;-58
2022/07/27 05:47:20;;;;;;;2.78;2.40;;;20.50;99.90;;;;;;5035788;28;20229;-58
2022/07/27 05:49:47;;;;;;;6.47;2.35;;;20.40;99.90;;;;;;5015867;28;20207;-58
2022/07/27 05:52:14;;;;;;;7.50;2.47;;;20.40;99.90;;;;;;5015417;28;20211;-57
2022/07/27 05:54:41;;;;;;;6.40;2.50;;;20.60;99.90;;;;;;5015702;28;20207;-57
2022/07/27 05:57:09;;;;;;;3.20;2.30;;;20.60;99.90;;;;;;5015030;28;20779;-57
2022/07/27 05:59:36;;;;;;;5.30;2.30;;;20.50;99.90;;;;;;5015882;28;20213;-57
2022/07/27 06:02:03;;;;;;;3.30;2.67;;;20.40;99.90;;;;;;5015786;28;20207;-57
2022/07/27 06:04:30;;;;;;;6.30;2.63;;;20.60;99.90;;;;;;5016022;28;20234;-58
2022/07/27 06:09:41;;;;;;;4.90;2.75;;;20.70;99.90;;;;;;5015871;28;20273;-58
2022/07/27 06:12:09;;;;;;;3.78;2.35;;;20.60;99.90;;;;;;5014993;28;20618;-58
2022/07/27 06:14:36;;;;;;;4.47;2.58;;;20.50;99.90;;;;;;5015405;28;20569;-57
2022/07/27 06:17:03;;;;;;;3.88;2.60;;;20.40;99.90;;;;;;5015781;28;20226;-57
2022/07/27 06:19:30;;;;;;;8.52;2.63;;;20.40;99.90;;;;;;5015353;28;20217;-58
2022/07/27 06:21:57;;;;;;;5.93;2.55;;;20.40;99.90;;;;;;5015475;28;20203;-58
2022/07/27 06:24:24;;;;;;;5.45;2.50;;;20.60;99.90;;;;;;5016472;28;20245;-58
2022/07/27 06:26:51;;;;;;;3.20;2.30;;;20.80;99.90;;;;;;5016472;28;20319;-58
2022/07/27 06:29:19;;;;;;;4.57;2.50;;;21.00;99.90;;;;;;5016076;28;20628;-57
2022/07/27 06:31:46;;;;;;;3.92;2.58;;;21.10;99.90;;;;;;5015957;28;20214;-58
2022/07/27 06:34:12;;;;;;;4.82;2.38;;;21.20;99.90;;;;;;5015315;28;20221;-58
2022/07/27 06:36:41;;;;;;;4.53;2.40;;;21.10;99.90;;;;;;5015874;28;20258;-57
2022/07/27 06:39:08;;;;;;;8.73;2.30;;;21.00;99.90;;;;;;5015887;28;20206;-57
2022/07/27 06:41:34;;;;;;;9.95;2.83;;;21.20;99.90;;;;;;5014868;28;20207;-58
2022/07/27 06:44:01;;;;;;;2.88;2.35;;;21.30;99.90;;;;;;5014291;28;20679;-58
2022/07/27 06:46:29;;;;;;;5.15;3.03;;;21.50;99.90;;;;;;5014738;28;20650;-57
2022/07/27 06:48:56;;;;;;;7.03;2.63;;;21.50;99.90;;;;;;5026139;28;20237;-62
2022/07/27 06:51:23;;;;;;;3.15;2.60;;;21.40;99.90;;;;;;5035315;28;20674;-61
2022/07/27 06:53:52;;;;;;;3.63;2.63;;;21.30;99.90;;;;;;5036597;28;20203;-60
2022/07/27 06:56:19;;;;;;;5.10;2.60;;;21.50;99.90;;;;;;5035325;28;20710;-60
2022/07/27 06:58:45;;;;;;;4.35;3.00;;;21.80;99.90;;;;;;5036066;28;20300;-60
2022/07/27 07:01:14;;;;;;;5.70;2.50;;;22.00;99.90;;;;;;5035783;28;20206;-63
2022/07/27 07:03:43;;;;;;;4.43;2.85;;;22.00;99.90;;;;;;5035562;28;20206;-65
2022/07/27 07:06:09;;;;;;;3.25;2.22;;;22.10;99.90;;;;;;5036803;28;20235;-62
2022/07/27 07:08:36;;;;;;;8.27;2.95;;;22.30;99.90;;;;;;5034062;28;20597;-57
2022/07/27 07:11:03;;;;;;;2.75;2.22;;;22.50;99.90;;;;;;5033924;28;20220;-56
2022/07/27 07:13:30;;;;;;;3.97;2.50;;;22.60;99.90;;;;;;5033762;28;20550;-56
2022/07/27 07:15:57;;;;;;;3.90;2.30;;;23.10;99.90;;;;;;5033783;28;20225;-56
2022/07/27 07:18:24;;;;;;;3.38;2.53;;;23.70;99.90;;;;;;5033966;28;20304;-57
2022/07/27 07:20:53;;;;;;;4.47;2.70;;;23.90;99.90;;;;;;5033232;28;20237;-57
2022/07/27 07:23:20;;;;;;;2.75;2.25;;;24.30;99.90;;;;;;5033366;28;20214;-57
2022/07/27 07:25:47;;;;;;;2.60;2.40;;;24.80;99.90;;;;;;5033391;28;20317;-57
2022/07/27 07:28:13;;;;;;;2.60;2.22;;;25.60;99.90;;;;;;5033074;28;20284;-57
2022/07/27 07:30:40;;;;;;;3.28;1.90;;;26.00;99.80;;;;;;5033738;28;20213;-57
2022/07/27 07:33:07;;;;;;;5.75;2.38;;;26.40;98.50;;;;;;5032864;28;20543;-57
2022/07/27 07:35:34;;;;;;;2.63;2.28;;;26.50;97.70;;;;;;5033200;28;20249;-56
2022/07/27 07:38:02;;;;;;;3.45;2.42;;;26.90;97.00;;;;;;5033793;28;20274;-56
2022/07/27 07:40:29;;;;;;;2.78;2.15;;;27.30;95.60;;;;;;5033098;28;20585;-56
2022/07/27 07:42:58;;;;;;;2.53;2.20;;;27.40;94.80;;;;;;5032914;28;20210;-56
2022/07/27 07:45:26;;;;;;;4.40;2.17;;;27.30;94.60;;;;;;5032777;28;20233;-57
2022/07/27 07:47:54;;;;;;;2.80;2.30;;;27.20;94.40;;;;;;5030713;28;20230;-56
2022/07/27 07:50:22;;;;;;;3.15;2.13;;;27.00;94.20;;;;;;5013185;28;20737;-56
2022/07/27 07:52:50;;;;;;;3.50;2.53;;;26.70;94.80;;;;;;5013305;28;20202;-56
2022/07/27 07:55:21;;;;;;;4.00;2.47;;;25.80;96.10;;;;;;5013164;28;20231;-56
2022/07/27 07:57:48;;;;;;;4.85;2.20;;;25.00;98.30;;;;;;5012608;28;20214;-56
2022/07/27 08:00:16;;;;;;;4.03;2.00;;;24.90;99.00;;;;;;5013227;28;20206;-56
2022/07/27 08:02:44;;;;;;;5.90;2.28;;;26.40;96.10;;;;;;5012180;28;20211;-57
2022/07/27 08:05:12;;;;;;;4.63;2.30;;;27.00;94.40;;;;;;5012608;28;20254;-56
2022/07/27 08:07:39;;;;;;;7.97;2.08;;;26.90;94.30;;;;;;5012648;28;20211;-58
2022/07/27 08:10:07;;;;;;;3.33;2.45;;;27.50;93.40;;;;;;5012359;28;20207;-56
2022/07/27 08:12:36;;;;;;;4.93;2.20;;;27.80;91.90;;;;;;5012418;28;20213;-56
2022/07/27 08:15:03;;;;;;;2.70;2.15;;;27.70;92.20;;;;;;5012231;28;20207;-56
2022/07/27 08:17:30;;;;;;;3.22;2.42;;;27.70;91.60;;;;;;5012394;28;20203;-58
2022/07/27 08:19:57;;;;;;;4.43;2.17;;;27.40;92.00;;;;;;5012579;28;20294;-56
2022/07/27 08:22:24;;;;;;;4.38;2.10;;;27.30;92.00;;;;;;5011544;28;20210;-56
2022/07/27 08:24:51;;;;;;;5.18;2.30;;;27.60;91.60;;;;;;5011916;28;20663;-56
2022/07/27 08:27:18;;;;;;;7.53;2.30;;;28.50;90.10;;;;;;5012198;28;20671;-56
2022/07/27 08:29:46;;;;;;;4.10;2.00;;;29.30;86.40;;;;;;5012432;28;20224;-57
2022/07/27 08:32:12;;;;;;;4.57;2.13;;;29.60;84.70;;;;;;5012229;28;20290;-57
2022/07/27 08:34:39;;;;;;;2.97;1.90;;;29.50;83.20;;;;;;5012006;28;20214;-56
2022/07/27 08:37:06;;;;;;;5.32;2.45;;;29.00;84.40;;;;;;5011778;28;20235;-56
2022/07/27 08:39:33;;;;;;;5.88;2.03;;;28.80;86.00;;;;;;5012429;28;20214;-57
2022/07/27 08:42:03;;;;;;;3.47;2.38;;;28.90;84.30;;;;;;5012264;28;20253;-57
2022/07/27 08:44:31;;;;;;;3.70;2.17;;;29.00;83.40;;;;;;5012025;28;20230;-57
2022/07/27 08:47:01;;;;;;;3.67;2.30;;;29.10;82.50;;;;;;5011961;28;20667;-57
2022/07/27 08:49:29;;;;;;;5.05;2.17;;;28.70;83.20;;;;;;5026241;28;20229;-56
2022/07/27 08:51:56;;;;;;;2.42;2.08;;;28.40;84.80;;;;;;5031663;28;20205;-58
2022/07/27 08:54:25;;;;;;;5.65;2.40;;;28.40;84.70;;;;;;5031596;28;20202;-57
2022/07/27 08:56:51;;;;;;;5.97;2.42;;;28.00;86.00;;;;;;5031630;28;20229;-57
2022/07/27 08:59:18;;;;;;;2.63;2.10;;;27.70;87.40;;;;;;5031147;28;20685;-57
2022/07/27 09:01:45;;;;;;;6.10;2.17;;;27.70;88.10;;;;;;5031226;28;20214;-57
2022/07/27 09:04:13;;;;;;;4.65;2.22;;;28.20;86.60;;;;;;5031402;28;20210;-57
2022/07/27 09:06:41;;;;;;;6.82;2.25;;;28.70;84.50;;;;;;5031811;28;20516;-57
2022/07/27 09:09:08;;;;;;;7.43;2.00;;;28.70;84.10;;;;;;5031556;28;20317;-58
2022/07/27 09:11:36;;;;;;;2.97;2.05;;;28.60;83.10;;;;;;5030970;28;20233;-57
2022/07/27 09:14:04;;;;;;;2.13;1.92;;;28.60;83.00;;;;;;5031218;28;20296;-57
2022/07/27 09:16:31;;;;;;;2.55;2.15;;;28.50;83.00;;;;;;5031242;28;20233;-65
2022/07/27 09:18:59;;;;;;;3.83;2.30;;;28.60;83.70;;;;;;5032490;28;20300;-60
2022/07/27 09:21:28;;;;;;;3.28;2.10;;;28.20;84.40;;;;;;5032191;28;20210;-59
2022/07/27 09:24:05;;;;;;;3.33;1.88;;;28.20;85.00;;;;;;5031483;28;20218;-59
2022/07/27 09:26:32;;;;;;;3.33;2.17;;;28.80;83.20;;;;;;5032140;28;20221;-59
2022/07/27 09:29:01;;;;;;;8.88;3.10;;;29.20;82.00;;;;;;5031780;28;20237;-61
2022/07/27 09:31:28;;;;;;;6.43;2.35;;;29.40;81.50;;;;;;5031214;28;20221;-57
2022/07/27 09:33:58;;;;;;;5.63;2.50;;;29.40;80.80;;;;;;5031252;28;20213;-57
2022/07/27 09:36:28;;;;;;;8.00;2.72;;;29.00;82.20;;;;;;5053474;23;20249;-55
2022/07/27 09:38:56;;;;;;;5.45;2.25;;;28.60;83.10;;;;;;5022478;28;20222;-54
2022/07/27 09:41:23;;;;;;;5.72;2.10;;;28.40;84.80;;;;;;5030355;28;20221;-55
2022/07/27 09:43:53;;;;;;;3.58;2.17;;;28.30;85.90;;;;;;5030779;28;20210;-54
2022/07/27 09:46:30;;;;;;;4.25;2.00;;;28.50;84.90;;;;;;5030966;28;20651;-55
2022/07/27 09:48:57;;;;;;;4.07;2.20;;;28.60;84.10;;;;;;5030870;28;20340;-55
2022/07/27 09:51:24;;;;;;;7.50;2.17;;;28.70;84.10;;;;;;5031231;28;20720;-54
2022/07/27 09:53:52;;;;;;;6.93;2.53;;;28.80;83.20;;;;;;5031373;28;20473;-57
2022/07/27 09:56:26;;;;;;;4.10;2.15;;;28.90;83.30;;;;;;5030858;28;20253;-57
2022/07/27 09:58:55;;;;;;;5.25;2.47;;;29.00;82.20;;;;;;5030769;28;20623;-60
2022/07/27 10:01:24;;;;;;;5.10;2.00;;;28.50;81.90;;;;;;5030030;28;20667;-57
2022/07/27 10:03:53;;;;;;;3.72;2.30;;;28.10;83.70;;;;;;5030308;28;20202;-58
2022/07/27 10:06:21;;;;;;;6.80;2.55;;;27.70;84.70;;;;;;5030272;28;20227;-59
2022/07/27 10:08:49;;;;;;;8.18;4.35;;;27.80;85.40;;;;;;5030364;28;20554;-58
2022/07/27 10:11:19;;;;;;;4.60;2.75;;;28.00;85.10;;;;;;5030538;28;20625;-57
2022/07/27 10:13:46;;;;;;;2.63;2.22;;;28.10;83.20;;;;;;5030152;28;20293;-56
2022/07/27 10:16:14;;;;;;;5.65;2.70;;;28.10;82.80;;;;;;5030666;28;20240;-57
2022/07/27 10:18:49;;;;;;;5.50;2.70;;;28.10;83.30;;;;;;5030908;28;20202;-57
2022/07/27 10:21:17;;;;;;;4.10;2.40;;;28.40;81.60;;;;;;5030405;28;20229;-57
2022/07/27 10:23:55;;;;;;;5.90;2.55;;;28.40;81.50;;;;;;5030385;28;20301;-56
2022/07/27 10:26:30;;;;;;;2.95;2.40;;;28.40;81.80;;;;;;5033688;28;20229;-56
2022/07/27 10:28:59;;;;;;;1.95;1.77;;;28.30;81.70;;;;;;5034301;28;20232;-57
2022/07/27 10:31:28;;;;;;;4.05;1.92;;;28.60;81.50;;;;;;5034044;28;20202;-59
2022/07/27 10:33:58;;;;;;;4.50;1.90;;;28.90;80.30;;;;;;5033764;28;20559;-58
2022/07/27 10:36:47;;;;;;;2.45;2.10;;;28.80;77.40;;;;;;5033871;28;20321;-60
2022/07/27 10:39:28;;;;;;;3.78;1.73;;;28.60;79.20;;;;;;5033806;28;20202;-58
2022/07/27 10:42:23;;;;;;;2.35;1.80;;;28.30;80.30;;;;;;5033545;28;20206;-58
2022/07/27 10:45:08;;;;;;;5.03;2.00;;;28.20;80.40;;;;;;5033761;28;20215;-58
2022/07/27 10:47:40;;;;;;;2.75;2.10;;;28.00;80.30;;;;;;5033551;28;20202;-58
2022/07/27 10:50:46;;;;;;;2.20;1.80;;;27.80;79.90;;;;;;5033156;28;20600;-59
2022/07/27 10:53:14;;;;;;;3.67;1.80;;;27.80;80.20;;;;;;5033490;28;20256;-58
2022/07/27 10:55:45;;;;;;;3.20;2.00;;;27.90;79.20;;;;;;5033549;28;20230;-58
2022/07/27 10:58:45;;;;;;;4.90;1.90;;;28.10;79.50;;;;;;5033578;28;20259;-59
2022/07/27 11:01:15;;;;;;;1.80;1.48;;;28.40;78.90;;;;;;5033306;28;20229;-59
2022/07/27 11:03:46;;;;;;;3.28;1.73;;;28.90;76.60;;;;;;5033413;28;20670;-59
2022/07/27 11:06:21;;;;;;;2.65;1.75;;;28.80;73.60;;;;;;5033569;28;20230;-57
2022/07/27 11:08:50;;;;;;;3.88;1.88;;;28.40;73.70;;;;;;5033721;28;20206;-57
2022/07/27 11:11:19;;;;;;;3.00;1.90;;;27.90;76.00;;;;;;5033639;28;20281;-55
2022/07/27 11:13:50;;;;;;;2.50;1.75;;;27.80;75.80;;;;;;5033654;28;20587;-58
2022/07/27 11:16:17;;;;;;;4.85;2.00;;;28.10;74.20;;;;;;5033768;28;20222;-60
2022/07/27 11:18:52;;;;;;;3.30;1.63;;;28.20;74.30;;;;;;5034013;28;20206;-60
2022/07/27 11:21:21;;;;;;;4.32;1.80;;;28.30;72.80;;;;;;5033213;28;20209;-56
2022/07/27 11:23:49;;;;;;;5.68;1.65;;;28.30;73.40;;;;;;5032916;28;20209;-56
2022/07/27 11:26:16;;;;;;;2.53;1.50;;;28.40;71.90;;;;;;5032892;28;20296;-57
2022/07/27 11:28:43;;;;;;;3.50;1.63;;;28.30;72.20;;;;;;5033195;28;20210;-57
2022/07/27 11:31:13;;;;;;;1.83;1.42;;;28.40;70.40;;;;;;5033256;28;20221;-59
2022/07/27 11:33:57;;;;;;;2.63;1.58;;;28.30;70.40;;;;;;5033354;28;20264;-57
2022/07/27 11:36:36;;;;;;;2.63;1.40;;;28.30;71.20;;;;;;5032153;28;20241;-57
2022/07/27 11:39:04;;;;;;;5.53;1.73;;;28.40;71.20;;;;;;5032638;28;20214;-56
2022/07/27 11:41:34;;;;;;;3.00;1.60;;;28.50;70.60;;;;;;5032437;28;20646;-57
2022/07/27 11:44:02;;;;;;;1.77;1.67;;;28.60;70.60;;;;;;5032653;28;20214;-57
2022/07/27 11:46:32;;;;;;;2.38;1.73;;;28.60;71.60;;;;;;5032383;28;20627;-58
2022/07/27 11:49:01;;;;;;;4.53;1.90;;;28.80;72.60;;;;;;5024840;28;20264;-58
2022/07/27 11:51:29;;;;;;;5.68;1.70;;;28.80;70.90;;;;;;5012651;28;20207;-62
2022/07/27 11:54:00;;;;;;;4.63;1.90;;;28.60;71.40;;;;;;5012553;28;20685;-63
2022/07/27 11:56:29;;;;;;;4.53;1.52;;;28.70;71.50;;;;;;5013374;28;20223;-54
2022/07/27 11:59:05;;;;;;;3.38;1.70;;;29.10;69.40;;;;;;5013616;28;20207;-55
2022/07/27 12:01:37;;;;;;;3.88;1.50;;;29.20;68.80;;;;;;5013590;28;20313;-55
2022/07/27 12:04:11;;;;;;;4.20;1.58;;;28.90;67.30;;;;;;5013593;28;20257;-59
2022/07/27 12:06:39;;;;;;;2.92;1.20;;;28.70;68.60;;;;;;5013420;28;20230;-58
2022/07/27 12:09:07;;;;;;;4.60;1.60;;;28.50;67.40;;;;;;5013360;28;20215;-58
2022/07/27 12:11:53;;;;;;;2.25;1.50;;;28.50;68.80;;;;;;5013095;28;20211;-58
2022/07/27 12:14:27;;;;;;;3.78;1.35;;;28.70;69.30;;;;;;5013825;28;20229;-58
2022/07/27 12:17:10;;;;;;;6.15;1.60;;;28.60;69.20;;;;;;5013182;28;20734;-59
2022/07/27 12:19:37;;;;;;;2.55;1.48;;;28.40;68.90;;;;;;5013390;28;20210;-59
2022/07/27 12:22:04;;;;;;;6.88;1.75;;;28.30;69.00;;;;;;5013003;28;20206;-59
2022/07/27 12:24:36;;;;;;;2.55;1.35;;;28.20;69.10;;;;;;5013552;28;20234;-58
2022/07/27 12:27:05;;;;;;;8.80;1.50;;;28.20;67.50;;;;;;5013053;28;20702;-59
2022/07/27 12:29:32;;;;;;;4.20;1.50;;;28.30;67.50;;;;;;5013078;28;20250;-59
2022/07/27 12:32:03;;;;;;;3.60;1.58;;;28.70;66.20;;;;;;5012742;28;20202;-59
2022/07/27 12:34:34;;;;;;;3.08;1.30;;;28.80;66.50;;;;;;5012882;28;20207;-59
2022/07/27 12:37:01;;;;;;;5.63;1.40;;;28.70;66.40;;;;;;5012942;28;20586;-59
2022/07/27 12:39:30;;;;;;;2.72;1.20;;;28.80;66.00;;;;;;5013101;28;20210;-59
2022/07/27 12:42:05;;;;;;;4.80;1.88;;;29.10;64.10;;;;;;5012928;28;20210;-59
2022/07/27 12:44:33;;;;;;;2.78;1.55;;;29.60;63.60;;;;;;5013004;28;20210;-59
2022/07/27 12:47:39;;;;;;;6.50;1.40;;;30.10;61.70;;;;;;5012533;28;20313;-59
2022/07/27 12:50:05;;;;;;;3.30;1.45;;;30.20;58.60;;;;;;5012667;28;20272;-59
2022/07/27 12:52:32;;;;;;;3.53;1.20;;;30.60;59.20;;;;;;5012677;28;20202;-59
2022/07/27 12:54:59;;;;;;;6.88;1.80;;;30.90;60.00;;;;;;5012860;28;20264;-58
2022/07/27 12:57:26;;;;;;;5.95;1.60;;;30.80;61.00;;;;;;5012749;28;20227;-65
2022/07/27 12:59:53;;;;;;;5.88;1.80;;;30.90;59.50;;;;;;5012665;28;20207;-60